Weather History for Greensboro, GA

Change the Weather History Date:

Saturday, March 8, 2014

  Actual Average (KDBN) Record (KDBN)
Temperature  
Mean Temperature 52 °F -  
Max Temperature 69 °F 67 °F 86 °F (1951)
Min Temperature 35 °F 39 °F 27 °F (1960)
Degree Days  
Heating Degree Days 13    
Growing Degree Days 2 (Base 50)    
Moisture  
Dew Point 40 °F    
Average Humidity 68    
Maximum Humidity 100    
Minimum Humidity 31    
Precipitation  
Precipitation 0.00 in - - ()
Sea Level Pressure  
Sea Level Pressure 30.06 in    
Wind  
Wind Speed 2 mph (SW)    
Max Wind Speed 10 mph    
Max Gust Speed 18 mph    
Visibility 9 miles    
Events      
Averages and records for this station are not official NWS values.
T = Trace of Precipitation, MM = Missing Value Source: NWS Daily Summary

Daily Weather History Graph

Daily Weather History Graph

Search for Another Location

Airport:

Trip Planner

Search our weather history database for the weather conditions in past years. The results will help you decide how hot, cold, wet, or windy it might be!

Date:

Astronomy

Mar. 08, 2014 Rise Set
Actual Time 6:52 AM EST 6:34 PM EST
Civil Twilight 6:27 AM EST 6:59 PM EST
Nautical Twilight 5:58 AM EST 7:28 PM EST
Astronomical Twilight 5:29 AM EST 7:57 PM EST
Moon 11:50 AM EST (3/8) 1:14 AM EST (3/8)
Length of Visible Light 12h 32m
Length of Day
11h 42m
First Quarter, 51% of the Moon is Illuminated
Mar 8
First Quarter
Mar 16
Full
Mar 23
Last Quarter
Mar 30
New
Apr 7
First Quarter

Hourly Weather History & Observations

Time (EST) Temp. Windchill Dew Point Humidity Pressure Visibility Wind Dir Wind Speed Gust Speed Precip Events Conditions
12:15 AM 41.0 °F - 41.0 °F 100% 30.02 in 10.0 mi Calm Calm - N/A   Clear
12:35 AM 41.0 °F - 39.2 °F 93% 30.02 in 10.0 mi Calm Calm - N/A   Clear
12:55 AM 39.2 °F - 37.4 °F 93% 30.01 in 10.0 mi Calm Calm - N/A   Clear
1:15 AM 37.4 °F - 37.4 °F 100% 30.02 in 5.0 mi Calm Calm - N/A   Clear
1:35 AM 37.4 °F - 37.4 °F 100% 30.01 in 5.0 mi Calm Calm - N/A   Clear
1:55 AM 37.4 °F - 37.4 °F 100% 30.01 in 1.5 mi Calm Calm - N/A   Mist
2:15 AM 37.4 °F - 37.4 °F 100% 30.02 in 1.8 mi Calm Calm - N/A   Mist
2:35 AM 37.4 °F - 35.6 °F 93% 30.01 in 2.0 mi Calm Calm - N/A   Clear
2:55 AM 35.6 °F - 35.6 °F 100% 30.00 in 3.0 mi Calm Calm - N/A   Clear
3:15 AM 35.6 °F - 35.6 °F 100% 30.01 in 1.2 mi Calm Calm - N/A   Mist
3:35 AM 39.2 °F - 37.4 °F 93% 30.01 in 10.0 mi Calm Calm - N/A   Clear
3:55 AM 37.4 °F - 37.4 °F 100% 30.01 in 10.0 mi Calm Calm - N/A   Clear
4:15 AM 35.6 °F - 35.6 °F 100% 30.01 in 10.0 mi Calm Calm - N/A   Clear
4:35 AM 35.6 °F - 35.6 °F 100% 30.02 in 10.0 mi Calm Calm - N/A   Clear
4:55 AM 37.4 °F 34.9 °F 37.4 °F 100% 30.03 in 10.0 mi SW 3.5 mph - N/A   Clear
5:15 AM 39.2 °F 37.0 °F 37.4 °F 93% 30.03 in 10.0 mi SSW 3.5 mph - N/A   Clear
5:35 AM 37.4 °F - 37.4 °F 100% 30.04 in 10.0 mi Calm Calm - N/A   Clear
5:55 AM 37.4 °F - 37.4 °F 100% 30.05 in 10.0 mi Calm Calm - N/A   Clear
6:15 AM 35.6 °F - 35.6 °F 100% 30.05 in 10.0 mi Calm Calm - N/A   Clear
6:35 AM 35.6 °F - 35.6 °F 100% 30.06 in 4.0 mi Calm Calm - N/A   Clear
6:55 AM 37.4 °F - 37.4 °F 100% 30.07 in 7.0 mi Calm Calm - N/A   Clear
7:15 AM 37.4 °F - 37.4 °F 100% 30.07 in 7.0 mi Calm Calm - N/A   Clear
7:35 AM 39.2 °F 37.0 °F 37.4 °F 93% 30.09 in 7.0 mi SW 3.5 mph - N/A   Clear
7:55 AM 41.0 °F - 39.2 °F 93% 30.09 in 10.0 mi Calm Calm - N/A   Clear
8:15 AM 42.8 °F 41.1 °F 41.0 °F 93% 30.10 in 10.0 mi SSW 3.5 mph - N/A   Clear
8:35 AM 42.8 °F 39.3 °F 42.8 °F 100% 30.10 in 10.0 mi SSW 5.8 mph - N/A   Clear
8:55 AM 44.6 °F 42.2 °F 42.8 °F 93% 30.11 in 10.0 mi SSW 4.6 mph - N/A   Clear
9:15 AM 46.4 °F 44.3 °F 44.6 °F 93% 30.12 in 10.0 mi WSW 4.6 mph - N/A   Clear
9:35 AM 50.0 °F - 44.6 °F 82% 30.12 in 10.0 mi WSW 5.8 mph - N/A   Clear
9:55 AM 50.0 °F - 44.6 °F 82% 30.12 in 10.0 mi WSW 5.8 mph - N/A   Clear
10:15 AM 51.8 °F - 42.8 °F 71% 30.13 in 10.0 mi SW 5.8 mph - N/A   Clear
10:35 AM 53.6 °F - 42.8 °F 67% 30.13 in 10.0 mi West 4.6 mph - N/A   Clear
10:55 AM 55.4 °F - 42.8 °F 63% 30.12 in 10.0 mi SW 3.5 mph - N/A   Clear
11:20 AM 57.2 °F - 42.8 °F 59% 30.11 in 10.0 mi WSW 4.6 mph - N/A   Clear
11:35 AM 59.0 °F - 42.8 °F 55% 30.11 in 10.0 mi WSW 4.6 mph - N/A   Clear
11:55 AM 60.8 °F - 42.8 °F 52% 30.11 in 10.0 mi SW 6.9 mph - N/A   Clear
12:15 PM 62.6 °F - 41.0 °F 45% 30.10 in 10.0 mi West 4.6 mph - N/A   Clear
12:35 PM 62.6 °F - 42.8 °F 48% 30.09 in 10.0 mi SW 5.8 mph - N/A   Clear
12:55 PM 64.4 °F - 42.8 °F 45% 30.08 in 10.0 mi WSW 5.8 mph - N/A   Clear
1:15 PM 64.4 °F - 41.0 °F 42% 30.07 in 10.0 mi SSW 6.9 mph - N/A   Clear
1:35 PM 68.0 °F - 41.0 °F 37% 30.06 in 10.0 mi SW 8.1 mph - N/A   Clear
1:55 PM 68.0 °F - 37.4 °F 33% 30.05 in 10.0 mi SW 4.6 mph - N/A   Clear
2:15 PM 68.0 °F - 37.4 °F 33% 30.05 in 10.0 mi WSW 10.4 mph - N/A   Clear
2:35 PM 68.0 °F - 37.4 °F 33% 30.04 in 10.0 mi SW 5.8 mph - N/A   Clear
2:55 PM 69.8 °F - 39.2 °F 33% 30.04 in 10.0 mi SW 6.9 mph - N/A   Clear
3:15 PM 68.0 °F - 37.4 °F 33% 30.04 in 10.0 mi WSW 9.2 mph 17.3 mph N/A   Clear
3:35 PM 69.8 °F - 37.4 °F 31% 30.04 in 10.0 mi West 6.9 mph - N/A   Clear
3:55 PM 69.8 °F - 37.4 °F 31% 30.03 in 10.0 mi SW 9.2 mph - N/A   Clear
4:15 PM 68.0 °F - 37.4 °F 33% 30.03 in 10.0 mi WSW 6.9 mph 16.1 mph N/A   Clear
4:35 PM 69.8 °F - 37.4 °F 31% 30.03 in 10.0 mi West 9.2 mph - N/A   Clear
4:55 PM 69.8 °F - 37.4 °F 31% 30.03 in 10.0 mi WSW 9.2 mph - N/A   Clear
5:15 PM 68.0 °F - 37.4 °F 33% 30.02 in 10.0 mi WSW 8.1 mph 18.4 mph N/A   Clear
5:35 PM 68.0 °F - 37.4 °F 33% 30.02 in 10.0 mi WSW 5.8 mph - N/A   Clear
5:55 PM 66.2 °F - 39.2 °F 37% 30.02 in 10.0 mi WSW 4.6 mph - N/A   Clear
6:15 PM 64.4 °F - 39.2 °F 40% 30.03 in 10.0 mi Calm Calm - N/A   Clear
6:35 PM 62.6 °F - 41.0 °F 45% 30.04 in 10.0 mi Calm Calm - N/A   Clear
6:55 PM 62.6 °F - 41.0 °F 45% 30.04 in 10.0 mi Calm Calm - N/A   Clear
7:15 PM 60.8 °F - 41.0 °F 48% 30.05 in 10.0 mi Calm Calm - N/A   Clear
7:40 PM 60.8 °F - 41.0 °F 48% 30.05 in 10.0 mi SW 3.5 mph - N/A   Clear
7:55 PM 60.8 °F - 41.0 °F 48% 30.05 in 10.0 mi Calm Calm - N/A   Clear
8:15 PM 59.0 °F - 41.0 °F 51% 30.05 in 10.0 mi SW 3.5 mph - N/A   Clear
8:35 PM 59.0 °F - 41.0 °F 51% 30.06 in 10.0 mi WSW 3.5 mph - N/A   Clear
8:55 PM 59.0 °F - 41.0 °F 51% 30.06 in 10.0 mi Calm Calm - N/A   Clear
9:15 PM 59.0 °F - 41.0 °F 51% 30.06 in 10.0 mi Calm Calm - N/A   Clear
9:35 PM 57.2 °F - 41.0 °F 55% 30.07 in 10.0 mi WSW 3.5 mph - N/A   Clear
9:55 PM 57.2 °F - 41.0 °F 55% 30.07 in 10.0 mi WSW 3.5 mph - N/A   Clear
10:15 PM 55.4 °F - 42.8 °F 63% 30.08 in 10.0 mi WSW 3.5 mph - N/A   Clear
10:35 PM 55.4 °F - 42.8 °F 63% 30.07 in 10.0 mi WSW 4.6 mph - N/A   Clear
10:55 PM 55.4 °F - 42.8 °F 63% 30.07 in 10.0 mi WSW 4.6 mph - N/A   Clear
11:15 PM 53.6 °F - 42.8 °F 67% 30.07 in 10.0 mi WSW 4.6 mph - N/A   Clear
11:35 PM 53.6 °F - 42.8 °F 67% 30.07 in 10.0 mi WSW 4.6 mph - N/A   Clear
11:55 PM 53.6 °F - 42.8 °F 67% 30.08 in 10.0 mi WSW 4.6 mph - N/A   Clear